Dades de l'estació automàtica Sant Cugat del Vallès - CAR
Resum diari
20:30 TU| Temperatura mitjana | 14.8 °C | |
|---|---|---|
| Temperatura màxima | 21.9 °C | 13:50 TU |
| Temperatura mínima | 10.0 °C | 5:21 TU |
| Humitat relativa mitjana | 76% | |
| Precipitació acumulada | 0.8 mm | |
| Ratxa màxima del vent (10 m) | 23.8 km/h - 118º | 14:23 TU |
| Irradiació solar global | 17.2 MJ/m2 | |
El tram horari està expressat en Temps Universal (TU). Cal sumar una hora en horari d'hivern i dues en horari d'estiu per passar a l'hora oficial.
Sant Cugat del Vallès - CAR
| Municipi | Sant Cugat del Vallès |
|---|---|
| Comarca | Vallès Occidental |
| Altitud | 157 m |
| Data alta | 08.08.2013 |
| Estat actual | Operativa |
| Període TU |
TM °C |
TX °C |
TN °C |
HRM % |
PPT mm |
VVM (10 m) km/h |
DVM (10 m) graus |
VVX (10 m) km/h |
RS W/m2 |
|---|---|---|---|---|---|---|---|---|---|
| 00:00 - 00:30 | 11.8 | 11.9 | 11.7 | 94 | 0.0 | 7.2 | 258 | 14.8 | 0 |
| 00:30 - 01:00 | 11.6 | 11.7 | 11.5 | 94 | 0.0 | 6.8 | 241 | 12.2 | 0 |
| 01:00 - 01:30 | 11.4 | 11.5 | 11.2 | 94 | 0.0 | 5.4 | 232 | 10.4 | 0 |
| 01:30 - 02:00 | 11.1 | 11.2 | 10.9 | 95 | 0.0 | 4.3 | 251 | 10.4 | 0 |
| 02:00 - 02:30 | 11.0 | 11.1 | 11.0 | 95 | 0.0 | 7.9 | 251 | 13.7 | 0 |
| 02:30 - 03:00 | 10.9 | 11.1 | 10.8 | 94 | 0.0 | 7.6 | 267 | 15.1 | 0 |
| 03:00 - 03:30 | 10.9 | 10.9 | 10.8 | 93 | 0.1 | 9.0 | 270 | 17.6 | 0 |
| 03:30 - 04:00 | 10.7 | 11.0 | 10.6 | 93 | 0.0 | 6.8 | 250 | 13.0 | 0 |
| 04:00 - 04:30 | 10.4 | 10.6 | 10.2 | 94 | 0.0 | 5.0 | 258 | 10.4 | 0 |
| 04:30 - 05:00 | 10.1 | 10.2 | 10.0 | 94 | 0.0 | 3.6 | 257 | 6.8 | 4 |
| 05:00 - 05:30 | 10.1 | 10.3 | 10.0 | 95 | 0.0 | 2.2 | 211 | 11.9 | 23 |
| 05:30 - 06:00 | 10.5 | 10.9 | 10.2 | 93 | 0.0 | 4.7 | 279 | 11.9 | 37 |
| 06:00 - 06:30 | 11.6 | 12.4 | 11.0 | 89 | 0.0 | 3.2 | 247 | 7.6 | 204 |
| 06:30 - 07:00 | 12.6 | 13.0 | 12.2 | 85 | 0.0 | 3.6 | 228 | 7.9 | 250 |
| 07:00 - 07:30 | 13.8 | 14.8 | 13.1 | 80 | 0.0 | 5.4 | 253 | 14.8 | 427 |
| 07:30 - 08:00 | 15.3 | 15.9 | 14.8 | 74 | 0.0 | 2.9 | 295 | 8.3 | 407 |
| 08:00 - 08:30 | 15.3 | 16.2 | 14.4 | 73 | 0.0 | 6.1 | 217 | 19.1 | 128 |
| 08:30 - 09:00 | 13.8 | 14.4 | 13.4 | 82 | 0.6 | 6.5 | 261 | 14.0 | 104 |
| 09:00 - 09:30 | 14.2 | 15.4 | 13.5 | 86 | 0.1 | 3.6 | 170 | 8.6 | 395 |
| 09:30 - 10:00 | 15.6 | 15.9 | 15.3 | 77 | 0.0 | 5.0 | 213 | 10.4 | 374 |
| 10:00 - 10:30 | 15.9 | 16.3 | 15.7 | 73 | 0.0 | 5.4 | 243 | 10.8 | 283 |
| 10:30 - 11:00 | 16.8 | 17.3 | 16.3 | 68 | 0.0 | 2.2 | 271 | 7.9 | 314 |
| 11:00 - 11:30 | 18.6 | 19.6 | 17.1 | 64 | 0.0 | 2.5 | 292 | 8.6 | 922 |
| 11:30 - 12:00 | 19.8 | 20.1 | 19.6 | 60 | 0.0 | 4.0 | 70 | 11.5 | 828 |
| 12:00 - 12:30 | 20.6 | 21.6 | 19.9 | 54 | 0.0 | 6.1 | 106 | 15.1 | 763 |
| 12:30 - 13:00 | 19.9 | 20.8 | 19.4 | 53 | 0.0 | 6.1 | 109 | 14.0 | 280 |
| 13:00 - 13:30 | 20.2 | 20.6 | 19.7 | 52 | 0.0 | 6.5 | 92 | 14.4 | 555 |
| 13:30 - 14:00 | 21.2 | 21.9 | 20.6 | 53 | 0.0 | 7.6 | 94 | 15.8 | 865 |
| 14:00 - 14:30 | 20.5 | 21.2 | 20.1 | 56 | 0.0 | 9.4 | 121 | 23.8 | 783 |
| 14:30 - 15:00 | 20.0 | 20.5 | 19.5 | 54 | 0.0 | 7.6 | 125 | 20.2 | 601 |
| 15:00 - 15:30 | 19.5 | 19.9 | 19.0 | 54 | 0.0 | 8.3 | 122 | 16.6 | 401 |
| 15:30 - 16:00 | 18.7 | 19.1 | 18.0 | 59 | 0.0 | 9.4 | 159 | 22.0 | 349 |
| 16:00 - 16:30 | 18.0 | 18.3 | 17.5 | 57 | 0.0 | 9.0 | 269 | 19.8 | 152 |
| 16:30 - 17:00 | 16.3 | 17.2 | 16.0 | 61 | 0.0 | 8.3 | 288 | 18.4 | 67 |
| 17:00 - 17:30 | 15.6 | 16.0 | 15.5 | 66 | 0.0 | 5.8 | 283 | 12.6 | 29 |
| 17:30 - 18:00 | 15.4 | 15.7 | 15.2 | 68 | 0.0 | 4.0 | 231 | 10.1 | 9 |
| 18:00 - 18:30 | 14.8 | 15.2 | 14.7 | 75 | 0.0 | 3.2 | 1 | 11.5 | 2 |
| 18:30 - 19:00 | 14.6 | 14.8 | 14.5 | 75 | 0.0 | 4.3 | 311 | 9.0 | 3 |
| 19:00 - 19:30 | 14.0 | 14.6 | 13.6 | 76 | 0.0 | 2.5 | 16 | 9.0 | 0 |
| 19:30 - 20:00 | 13.6 | 13.7 | 13.5 | 79 | 0.0 | 2.5 | 147 | 4.7 | 0 |
| 20:00 - 20:30 | 13.5 | 13.6 | 13.3 | 80 | 0.0 | 1.4 | 213 | 4.7 | 0 |
| 20:30 - 21:00 | 13.6 | 13.8 | 13.4 | 81 | 0.0 | 2.9 | 266 | 7.6 | 0 |
| 21:00 - 21:30 | 13.7 | 13.8 | 13.6 | 79 | 0.0 | 5.8 | 266 | 11.9 | 0 |
Les dades en taronja només han passat un control de qualitat automàtic. Resta pendent la seva validació definitiva.